sensor_id;sensor_type;location;lat;lon;timestamp;P1;durP1;ratioP1;P2;durP2;ratioP2
15526;SDS011;7865;50.918;4.510;2023-04-29T00:00:53;59.37;;;30.43;;
15526;SDS011;7865;50.918;4.510;2023-04-29T00:05:54;58.60;;;30.10;;
15526;SDS011;7865;50.918;4.510;2023-04-29T00:10:56;53.73;;;29.30;;
15526;SDS011;7865;50.918;4.510;2023-04-29T00:15:57;51.07;;;28.33;;
15526;SDS011;7865;50.918;4.510;2023-04-29T00:20:58;49.30;;;24.70;;
15526;SDS011;7865;50.918;4.510;2023-04-29T00:26:00;50.87;;;29.00;;
15526;SDS011;7865;50.918;4.510;2023-04-29T00:31:01;48.73;;;27.87;;
15526;SDS011;7865;50.918;4.510;2023-04-29T00:36:03;57.17;;;30.73;;
15526;SDS011;7865;50.918;4.510;2023-04-29T00:41:04;60.43;;;31.43;;
15526;SDS011;7865;50.918;4.510;2023-04-29T00:46:06;62.83;;;31.93;;
15526;SDS011;7865;50.918;4.510;2023-04-29T00:51:07;49.90;;;27.27;;
15526;SDS011;7865;50.918;4.510;2023-04-29T00:56:09;57.50;;;28.07;;
15526;SDS011;7865;50.918;4.510;2023-04-29T01:01:11;55.47;;;29.57;;
15526;SDS011;7865;50.918;4.510;2023-04-29T01:11:48;63.80;;;31.30;;
15526;SDS011;7865;50.918;4.510;2023-04-29T01:17:10;63.87;;;33.23;;
15526;SDS011;7865;50.918;4.510;2023-04-29T01:22:15;59.47;;;30.30;;
15526;SDS011;7865;50.918;4.510;2023-04-29T01:27:36;64.30;;;32.90;;
15526;SDS011;7865;50.918;4.510;2023-04-29T01:33:05;54.27;;;28.00;;
15526;SDS011;7865;50.918;4.510;2023-04-29T01:38:55;60.37;;;29.27;;
15526;SDS011;7865;50.918;4.510;2023-04-29T01:43:59;65.00;;;32.53;;
15526;SDS011;7865;50.918;4.510;2023-04-29T01:49:04;57.63;;;27.23;;
15526;SDS011;7865;50.918;4.510;2023-04-29T01:54:07;48.03;;;27.50;;
15526;SDS011;7865;50.918;4.510;2023-04-29T01:59:09;50.83;;;27.83;;
15526;SDS011;7865;50.918;4.510;2023-04-29T02:04:29;35.70;;;21.00;;
15526;SDS011;7865;50.918;4.510;2023-04-29T02:09:33;41.80;;;24.27;;
15526;SDS011;7865;50.918;4.510;2023-04-29T02:14:42;41.63;;;24.90;;
15526;SDS011;7865;50.918;4.510;2023-04-29T02:19:44;39.07;;;24.87;;
15526;SDS011;7865;50.918;4.510;2023-04-29T02:24:45;37.00;;;22.03;;
15526;SDS011;7865;50.918;4.510;2023-04-29T02:29:47;38.90;;;21.90;;
15526;SDS011;7865;50.918;4.510;2023-04-29T02:34:48;34.30;;;19.87;;
15526;SDS011;7865;50.918;4.510;2023-04-29T02:39:50;34.13;;;20.60;;
15526;SDS011;7865;50.918;4.510;2023-04-29T02:44:52;36.43;;;22.03;;
15526;SDS011;7865;50.918;4.510;2023-04-29T02:49:54;34.37;;;22.20;;
15526;SDS011;7865;50.918;4.510;2023-04-29T02:54:55;33.07;;;21.00;;
15526;SDS011;7865;50.918;4.510;2023-04-29T02:59:57;28.73;;;18.73;;
15526;SDS011;7865;50.918;4.510;2023-04-29T03:04:58;28.47;;;17.80;;
15526;SDS011;7865;50.918;4.510;2023-04-29T03:10:00;29.07;;;19.67;;
15526;SDS011;7865;50.918;4.510;2023-04-29T03:15:02;29.90;;;20.63;;
15526;SDS011;7865;50.918;4.510;2023-04-29T03:20:03;29.40;;;21.07;;
15526;SDS011;7865;50.918;4.510;2023-04-29T03:25:06;33.87;;;21.20;;
15526;SDS011;7865;50.918;4.510;2023-04-29T03:30:12;30.20;;;19.97;;
15526;SDS011;7865;50.918;4.510;2023-04-29T03:35:20;31.00;;;19.80;;
15526;SDS011;7865;50.918;4.510;2023-04-29T03:40:44;28.57;;;17.70;;
15526;SDS011;7865;50.918;4.510;2023-04-29T03:45:45;31.47;;;20.53;;
15526;SDS011;7865;50.918;4.510;2023-04-29T03:50:51;32.07;;;20.47;;
15526;SDS011;7865;50.918;4.510;2023-04-29T03:55:52;36.57;;;22.97;;
15526;SDS011;7865;50.918;4.510;2023-04-29T04:00:54;36.30;;;24.13;;
15526;SDS011;7865;50.918;4.510;2023-04-29T04:06:01;39.43;;;24.93;;
15526;SDS011;7865;50.918;4.510;2023-04-29T04:11:02;46.93;;;27.87;;
15526;SDS011;7865;50.918;4.510;2023-04-29T04:16:09;48.57;;;28.83;;
15526;SDS011;7865;50.918;4.510;2023-04-29T04:21:11;45.50;;;28.33;;
15526;SDS011;7865;50.918;4.510;2023-04-29T04:26:16;52.70;;;28.23;;
15526;SDS011;7865;50.918;4.510;2023-04-29T04:31:21;58.00;;;30.37;;
15526;SDS011;7865;50.918;4.510;2023-04-29T04:36:23;48.17;;;29.67;;
15526;SDS011;7865;50.918;4.510;2023-04-29T04:41:26;52.07;;;31.97;;
15526;SDS011;7865;50.918;4.510;2023-04-29T04:46:27;51.33;;;26.60;;
15526;SDS011;7865;50.918;4.510;2023-04-29T04:51:39;51.47;;;28.43;;
15526;SDS011;7865;50.918;4.510;2023-04-29T04:56:44;50.83;;;27.73;;
15526;SDS011;7865;50.918;4.510;2023-04-29T05:01:46;43.43;;;26.83;;
15526;SDS011;7865;50.918;4.510;2023-04-29T05:06:48;42.13;;;26.60;;
15526;SDS011;7865;50.918;4.510;2023-04-29T05:11:52;38.13;;;23.77;;
15526;SDS011;7865;50.918;4.510;2023-04-29T05:16:57;39.83;;;26.13;;
15526;SDS011;7865;50.918;4.510;2023-04-29T05:22:00;40.77;;;23.53;;
15526;SDS011;7865;50.918;4.510;2023-04-29T05:27:03;42.60;;;24.03;;
15526;SDS011;7865;50.918;4.510;2023-04-29T05:32:04;44.53;;;25.07;;
15526;SDS011;7865;50.918;4.510;2023-04-29T05:37:06;41.57;;;22.70;;
15526;SDS011;7865;50.918;4.510;2023-04-29T05:42:21;38.83;;;24.10;;
15526;SDS011;7865;50.918;4.510;2023-04-29T05:47:24;44.57;;;24.37;;
15526;SDS011;7865;50.918;4.510;2023-04-29T05:52:26;37.87;;;21.90;;
15526;SDS011;7865;50.918;4.510;2023-04-29T05:57:27;37.23;;;24.03;;
15526;SDS011;7865;50.918;4.510;2023-04-29T06:02:28;37.20;;;24.67;;
15526;SDS011;7865;50.918;4.510;2023-04-29T06:07:31;42.97;;;25.80;;
15526;SDS011;7865;50.918;4.510;2023-04-29T06:12:44;36.33;;;23.87;;
15526;SDS011;7865;50.918;4.510;2023-04-29T06:17:46;37.53;;;24.47;;
15526;SDS011;7865;50.918;4.510;2023-04-29T06:22:48;37.97;;;22.77;;
15526;SDS011;7865;50.918;4.510;2023-04-29T06:27:50;36.33;;;23.37;;
15526;SDS011;7865;50.918;4.510;2023-04-29T06:32:54;35.23;;;22.47;;
15526;SDS011;7865;50.918;4.510;2023-04-29T06:37:56;35.73;;;22.37;;
15526;SDS011;7865;50.918;4.510;2023-04-29T06:43:23;31.13;;;21.27;;
15526;SDS011;7865;50.918;4.510;2023-04-29T06:49:00;35.30;;;23.33;;
15526;SDS011;7865;50.918;4.510;2023-04-29T06:54:02;35.43;;;23.10;;
15526;SDS011;7865;50.918;4.510;2023-04-29T06:59:03;34.10;;;25.00;;
15526;SDS011;7865;50.918;4.510;2023-04-29T07:04:05;37.97;;;24.90;;
15526;SDS011;7865;50.918;4.510;2023-04-29T07:09:07;38.53;;;25.93;;
15526;SDS011;7865;50.918;4.510;2023-04-29T07:14:10;37.47;;;24.83;;
15526;SDS011;7865;50.918;4.510;2023-04-29T07:19:12;43.37;;;27.97;;
15526;SDS011;7865;50.918;4.510;2023-04-29T07:24:13;41.20;;;26.67;;
15526;SDS011;7865;50.918;4.510;2023-04-29T07:29:15;42.20;;;27.80;;
15526;SDS011;7865;50.918;4.510;2023-04-29T07:34:16;41.43;;;27.70;;
15526;SDS011;7865;50.918;4.510;2023-04-29T07:39:18;44.67;;;29.13;;
15526;SDS011;7865;50.918;4.510;2023-04-29T07:44:22;46.10;;;29.53;;
15526;SDS011;7865;50.918;4.510;2023-04-29T07:49:23;52.53;;;32.53;;
15526;SDS011;7865;50.918;4.510;2023-04-29T07:54:26;49.20;;;30.70;;
15526;SDS011;7865;50.918;4.510;2023-04-29T07:59:28;46.37;;;30.20;;
15526;SDS011;7865;50.918;4.510;2023-04-29T08:04:29;42.03;;;28.10;;
15526;SDS011;7865;50.918;4.510;2023-04-29T08:09:39;44.30;;;29.30;;
15526;SDS011;7865;50.918;4.510;2023-04-29T08:14:43;47.10;;;30.90;;
15526;SDS011;7865;50.918;4.510;2023-04-29T08:19:45;45.03;;;29.97;;
15526;SDS011;7865;50.918;4.510;2023-04-29T08:24:46;39.10;;;26.87;;
15526;SDS011;7865;50.918;4.510;2023-04-29T08:29:48;40.87;;;26.17;;
15526;SDS011;7865;50.918;4.510;2023-04-29T08:34:49;35.67;;;24.63;;
15526;SDS011;7865;50.918;4.510;2023-04-29T08:39:51;41.57;;;23.70;;
15526;SDS011;7865;50.918;4.510;2023-04-29T08:44:52;36.00;;;24.07;;
15526;SDS011;7865;50.918;4.510;2023-04-29T08:49:55;37.87;;;25.67;;
15526;SDS011;7865;50.918;4.510;2023-04-29T08:54:58;37.10;;;24.70;;
15526;SDS011;7865;50.918;4.510;2023-04-29T08:59:59;39.13;;;24.83;;
15526;SDS011;7865;50.918;4.510;2023-04-29T09:05:07;33.17;;;23.73;;
15526;SDS011;7865;50.918;4.510;2023-04-29T09:10:11;36.67;;;24.87;;
15526;SDS011;7865;50.918;4.510;2023-04-29T09:15:12;38.13;;;24.43;;
15526;SDS011;7865;50.918;4.510;2023-04-29T09:25:22;31.47;;;23.37;;
15526;SDS011;7865;50.918;4.510;2023-04-29T09:30:23;33.97;;;22.93;;
15526;SDS011;7865;50.918;4.510;2023-04-29T09:35:26;33.90;;;23.90;;
15526;SDS011;7865;50.918;4.510;2023-04-29T09:40:31;31.57;;;22.97;;
15526;SDS011;7865;50.918;4.510;2023-04-29T09:45:47;29.57;;;22.37;;
15526;SDS011;7865;50.918;4.510;2023-04-29T09:50:59;29.90;;;20.57;;
15526;SDS011;7865;50.918;4.510;2023-04-29T09:56:04;30.95;;;21.45;;
15526;SDS011;7865;50.918;4.510;2023-04-29T10:01:06;28.40;;;21.73;;
15526;SDS011;7865;50.918;4.510;2023-04-29T10:06:09;24.05;;;19.10;;
15526;SDS011;7865;50.918;4.510;2023-04-29T10:11:11;26.55;;;19.92;;
15526;SDS011;7865;50.918;4.510;2023-04-29T10:16:23;28.42;;;20.65;;
15526;SDS011;7865;50.918;4.510;2023-04-29T10:21:29;24.17;;;19.90;;
15526;SDS011;7865;50.918;4.510;2023-04-29T10:26:31;27.63;;;19.58;;
15526;SDS011;7865;50.918;4.510;2023-04-29T10:31:37;21.83;;;18.45;;
15526;SDS011;7865;50.918;4.510;2023-04-29T10:36:39;23.20;;;17.33;;
15526;SDS011;7865;50.918;4.510;2023-04-29T10:41:42;24.67;;;19.08;;
15526;SDS011;7865;50.918;4.510;2023-04-29T10:46:46;21.85;;;17.77;;
15526;SDS011;7865;50.918;4.510;2023-04-29T10:51:48;23.23;;;16.65;;
15526;SDS011;7865;50.918;4.510;2023-04-29T10:56:50;16.75;;;12.48;;
15526;SDS011;7865;50.918;4.510;2023-04-29T11:01:52;15.27;;;11.82;;
15526;SDS011;7865;50.918;4.510;2023-04-29T11:06:55;16.92;;;11.95;;
15526;SDS011;7865;50.918;4.510;2023-04-29T11:12:03;14.75;;;11.45;;
15526;SDS011;7865;50.918;4.510;2023-04-29T11:27:20;15.85;;;11.85;;
15526;SDS011;7865;50.918;4.510;2023-04-29T11:32:32;12.05;;;10.63;;
15526;SDS011;7865;50.918;4.510;2023-04-29T11:37:35;13.55;;;10.88;;
15526;SDS011;7865;50.918;4.510;2023-04-29T11:42:44;13.68;;;10.40;;
15526;SDS011;7865;50.918;4.510;2023-04-29T11:47:47;12.90;;;10.70;;
15526;SDS011;7865;50.918;4.510;2023-04-29T11:52:49;12.70;;;10.95;;
15526;SDS011;7865;50.918;4.510;2023-04-29T11:57:50;12.57;;;11.27;;
15526;SDS011;7865;50.918;4.510;2023-04-29T12:02:52;11.88;;;10.50;;
15526;SDS011;7865;50.918;4.510;2023-04-29T12:07:54;12.10;;;10.65;;
15526;SDS011;7865;50.918;4.510;2023-04-29T12:12:55;10.48;;;9.38;;
15526;SDS011;7865;50.918;4.510;2023-04-29T12:17:57;14.75;;;10.88;;
15526;SDS011;7865;50.918;4.510;2023-04-29T12:23:11;12.63;;;9.75;;
15526;SDS011;7865;50.918;4.510;2023-04-29T12:28:13;13.52;;;11.38;;
15526;SDS011;7865;50.918;4.510;2023-04-29T12:33:19;14.85;;;11.90;;
15526;SDS011;7865;50.918;4.510;2023-04-29T12:38:30;13.60;;;10.80;;
15526;SDS011;7865;50.918;4.510;2023-04-29T12:43:31;13.52;;;10.27;;
15526;SDS011;7865;50.918;4.510;2023-04-29T12:48:36;13.90;;;11.15;;
15526;SDS011;7865;50.918;4.510;2023-04-29T12:53:39;12.50;;;11.20;;
15526;SDS011;7865;50.918;4.510;2023-04-29T12:58:40;11.45;;;10.27;;
15526;SDS011;7865;50.918;4.510;2023-04-29T13:03:43;14.35;;;9.93;;
15526;SDS011;7865;50.918;4.510;2023-04-29T13:08:44;11.70;;;9.98;;
15526;SDS011;7865;50.918;4.510;2023-04-29T13:13:45;12.15;;;10.65;;
15526;SDS011;7865;50.918;4.510;2023-04-29T13:18:47;12.43;;;10.48;;
15526;SDS011;7865;50.918;4.510;2023-04-29T13:24:08;11.88;;;10.10;;
15526;SDS011;7865;50.918;4.510;2023-04-29T13:29:10;10.90;;;9.80;;
15526;SDS011;7865;50.918;4.510;2023-04-29T13:34:11;12.68;;;10.55;;
15526;SDS011;7865;50.918;4.510;2023-04-29T13:39:13;11.00;;;9.90;;
15526;SDS011;7865;50.918;4.510;2023-04-29T13:44:15;10.93;;;9.20;;
15526;SDS011;7865;50.918;4.510;2023-04-29T13:49:31;9.30;;;8.38;;
15526;SDS011;7865;50.918;4.510;2023-04-29T13:54:35;11.23;;;8.43;;
15526;SDS011;7865;50.918;4.510;2023-04-29T13:59:57;11.25;;;8.98;;
15526;SDS011;7865;50.918;4.510;2023-04-29T14:04:59;11.07;;;9.25;;
15526;SDS011;7865;50.918;4.510;2023-04-29T14:10:01;10.73;;;8.82;;
15526;SDS011;7865;50.918;4.510;2023-04-29T14:15:02;10.85;;;8.50;;
15526;SDS011;7865;50.918;4.510;2023-04-29T14:20:04;11.45;;;8.85;;
15526;SDS011;7865;50.918;4.510;2023-04-29T14:25:07;12.63;;;8.80;;
15526;SDS011;7865;50.918;4.510;2023-04-29T14:30:09;10.23;;;8.30;;
15526;SDS011;7865;50.918;4.510;2023-04-29T14:35:11;10.75;;;8.95;;
15526;SDS011;7865;50.918;4.510;2023-04-29T14:40:12;9.88;;;8.48;;
15526;SDS011;7865;50.918;4.510;2023-04-29T14:45:14;8.82;;;7.65;;
15526;SDS011;7865;50.918;4.510;2023-04-29T14:50:17;11.15;;;8.18;;
15526;SDS011;7865;50.918;4.510;2023-04-29T14:55:18;8.88;;;7.57;;
15526;SDS011;7865;50.918;4.510;2023-04-29T15:00:19;9.10;;;7.65;;
15526;SDS011;7865;50.918;4.510;2023-04-29T15:05:21;9.32;;;8.15;;
15526;SDS011;7865;50.918;4.510;2023-04-29T15:10:23;10.50;;;8.02;;
15526;SDS011;7865;50.918;4.510;2023-04-29T15:15:24;9.45;;;7.78;;
15526;SDS011;7865;50.918;4.510;2023-04-29T15:20:26;10.80;;;8.27;;
15526;SDS011;7865;50.918;4.510;2023-04-29T15:25:27;13.20;;;8.82;;
15526;SDS011;7865;50.918;4.510;2023-04-29T15:30:29;8.45;;;7.65;;
15526;SDS011;7865;50.918;4.510;2023-04-29T15:35:30;12.40;;;8.55;;
15526;SDS011;7865;50.918;4.510;2023-04-29T15:40:32;19.95;;;16.00;;
15526;SDS011;7865;50.918;4.510;2023-04-29T15:45:33;11.18;;;8.43;;
15526;SDS011;7865;50.918;4.510;2023-04-29T15:50:35;12.57;;;9.32;;
15526;SDS011;7865;50.918;4.510;2023-04-29T15:55:36;13.10;;;8.48;;
15526;SDS011;7865;50.918;4.510;2023-04-29T16:00:37;8.57;;;7.40;;
15526;SDS011;7865;50.918;4.510;2023-04-29T16:05:39;11.50;;;8.52;;
15526;SDS011;7865;50.918;4.510;2023-04-29T16:10:40;9.70;;;8.02;;
15526;SDS011;7865;50.918;4.510;2023-04-29T16:15:42;12.10;;;9.05;;
15526;SDS011;7865;50.918;4.510;2023-04-29T16:20:43;13.50;;;9.63;;
15526;SDS011;7865;50.918;4.510;2023-04-29T16:25:45;10.65;;;8.60;;
15526;SDS011;7865;50.918;4.510;2023-04-29T16:30:46;13.55;;;9.70;;
15526;SDS011;7865;50.918;4.510;2023-04-29T16:35:48;9.82;;;8.07;;
15526;SDS011;7865;50.918;4.510;2023-04-29T16:40:49;8.32;;;7.57;;
15526;SDS011;7865;50.918;4.510;2023-04-29T16:45:51;11.45;;;8.05;;
15526;SDS011;7865;50.918;4.510;2023-04-29T16:50:53;9.45;;;7.30;;
15526;SDS011;7865;50.918;4.510;2023-04-29T16:55:54;8.02;;;7.18;;
15526;SDS011;7865;50.918;4.510;2023-04-29T17:00:56;7.85;;;6.90;;
15526;SDS011;7865;50.918;4.510;2023-04-29T17:05:58;8.98;;;6.70;;
15526;SDS011;7865;50.918;4.510;2023-04-29T17:10:59;8.52;;;7.22;;
15526;SDS011;7865;50.918;4.510;2023-04-29T17:16:01;10.73;;;6.40;;
15526;SDS011;7865;50.918;4.510;2023-04-29T17:21:03;9.88;;;7.38;;
15526;SDS011;7865;50.918;4.510;2023-04-29T17:26:04;9.98;;;7.85;;
15526;SDS011;7865;50.918;4.510;2023-04-29T17:31:07;10.68;;;7.85;;
15526;SDS011;7865;50.918;4.510;2023-04-29T17:36:08;9.25;;;7.45;;
15526;SDS011;7865;50.918;4.510;2023-04-29T17:41:10;12.77;;;7.70;;
15526;SDS011;7865;50.918;4.510;2023-04-29T17:46:11;9.77;;;6.72;;
15526;SDS011;7865;50.918;4.510;2023-04-29T17:51:13;13.38;;;7.63;;
15526;SDS011;7865;50.918;4.510;2023-04-29T17:56:14;10.93;;;7.07;;
15526;SDS011;7865;50.918;4.510;2023-04-29T18:01:15;13.57;;;7.85;;
15526;SDS011;7865;50.918;4.510;2023-04-29T18:06:17;9.48;;;7.95;;
15526;SDS011;7865;50.918;4.510;2023-04-29T18:11:19;10.63;;;7.70;;
15526;SDS011;7865;50.918;4.510;2023-04-29T18:16:21;9.82;;;7.57;;
15526;SDS011;7865;50.918;4.510;2023-04-29T18:21:25;9.90;;;7.43;;
15526;SDS011;7865;50.918;4.510;2023-04-29T18:26:28;12.40;;;7.95;;
15526;SDS011;7865;50.918;4.510;2023-04-29T18:31:29;9.45;;;7.63;;
15526;SDS011;7865;50.918;4.510;2023-04-29T18:36:31;10.85;;;7.68;;
15526;SDS011;7865;50.918;4.510;2023-04-29T18:41:33;8.90;;;7.88;;
15526;SDS011;7865;50.918;4.510;2023-04-29T18:46:35;11.63;;;7.77;;
15526;SDS011;7865;50.918;4.510;2023-04-29T18:51:37;9.67;;;8.00;;
15526;SDS011;7865;50.918;4.510;2023-04-29T18:56:40;12.90;;;8.03;;
15526;SDS011;7865;50.918;4.510;2023-04-29T19:01:44;12.63;;;8.03;;
15526;SDS011;7865;50.918;4.510;2023-04-29T19:06:47;11.97;;;10.53;;
15526;SDS011;7865;50.918;4.510;2023-04-29T19:11:48;22.80;;;13.63;;
15526;SDS011;7865;50.918;4.510;2023-04-29T19:16:49;18.10;;;13.43;;
15526;SDS011;7865;50.918;4.510;2023-04-29T19:21:51;23.90;;;14.50;;
15526;SDS011;7865;50.918;4.510;2023-04-29T19:26:53;18.77;;;13.93;;
15526;SDS011;7865;50.918;4.510;2023-04-29T19:31:54;24.80;;;15.00;;
15526;SDS011;7865;50.918;4.510;2023-04-29T19:36:56;23.77;;;17.27;;
15526;SDS011;7865;50.918;4.510;2023-04-29T19:41:57;21.40;;;16.70;;
15526;SDS011;7865;50.918;4.510;2023-04-29T19:46:58;22.57;;;17.33;;
15526;SDS011;7865;50.918;4.510;2023-04-29T19:51:59;25.87;;;16.90;;
15526;SDS011;7865;50.918;4.510;2023-04-29T19:57:02;25.90;;;17.23;;
15526;SDS011;7865;50.918;4.510;2023-04-29T20:02:03;29.07;;;18.50;;
15526;SDS011;7865;50.918;4.510;2023-04-29T20:07:05;30.47;;;17.17;;
15526;SDS011;7865;50.918;4.510;2023-04-29T20:12:06;29.17;;;18.43;;
15526;SDS011;7865;50.918;4.510;2023-04-29T20:17:08;25.83;;;17.93;;
15526;SDS011;7865;50.918;4.510;2023-04-29T20:22:09;25.23;;;18.47;;
15526;SDS011;7865;50.918;4.510;2023-04-29T20:27:11;30.37;;;18.63;;
15526;SDS011;7865;50.918;4.510;2023-04-29T20:32:12;26.67;;;18.17;;
15526;SDS011;7865;50.918;4.510;2023-04-29T20:37:13;29.30;;;19.63;;
15526;SDS011;7865;50.918;4.510;2023-04-29T20:42:14;32.23;;;19.90;;
15526;SDS011;7865;50.918;4.510;2023-04-29T20:47:16;26.07;;;18.60;;
15526;SDS011;7865;50.918;4.510;2023-04-29T20:52:18;31.33;;;21.50;;
15526;SDS011;7865;50.918;4.510;2023-04-29T20:57:20;31.93;;;21.40;;
15526;SDS011;7865;50.918;4.510;2023-04-29T21:02:21;32.63;;;21.60;;
15526;SDS011;7865;50.918;4.510;2023-04-29T21:07:23;36.17;;;21.23;;
15526;SDS011;7865;50.918;4.510;2023-04-29T21:12:24;27.13;;;20.73;;
15526;SDS011;7865;50.918;4.510;2023-04-29T21:17:25;28.17;;;21.57;;
15526;SDS011;7865;50.918;4.510;2023-04-29T21:22:27;33.30;;;21.67;;
15526;SDS011;7865;50.918;4.510;2023-04-29T21:27:28;34.10;;;23.03;;
15526;SDS011;7865;50.918;4.510;2023-04-29T21:32:29;32.67;;;22.60;;
15526;SDS011;7865;50.918;4.510;2023-04-29T21:37:33;37.40;;;23.20;;
15526;SDS011;7865;50.918;4.510;2023-04-29T21:42:34;35.27;;;24.00;;
15526;SDS011;7865;50.918;4.510;2023-04-29T21:47:36;37.47;;;23.80;;
15526;SDS011;7865;50.918;4.510;2023-04-29T21:52:38;35.23;;;22.90;;
15526;SDS011;7865;50.918;4.510;2023-04-29T21:57:39;31.03;;;22.63;;
15526;SDS011;7865;50.918;4.510;2023-04-29T22:02:45;34.70;;;24.27;;
15526;SDS011;7865;50.918;4.510;2023-04-29T22:07:47;34.10;;;24.50;;
15526;SDS011;7865;50.918;4.510;2023-04-29T22:12:48;31.70;;;23.63;;
15526;SDS011;7865;50.918;4.510;2023-04-29T22:17:50;33.33;;;23.50;;
15526;SDS011;7865;50.918;4.510;2023-04-29T22:22:51;34.03;;;22.57;;
15526;SDS011;7865;50.918;4.510;2023-04-29T22:27:53;33.33;;;23.90;;
15526;SDS011;7865;50.918;4.510;2023-04-29T22:32:54;32.77;;;23.60;;
15526;SDS011;7865;50.918;4.510;2023-04-29T22:37:56;40.37;;;23.43;;
15526;SDS011;7865;50.918;4.510;2023-04-29T22:42:57;35.40;;;24.00;;
15526;SDS011;7865;50.918;4.510;2023-04-29T22:47:59;35.20;;;23.97;;
15526;SDS011;7865;50.918;4.510;2023-04-29T22:53:00;35.27;;;23.57;;
15526;SDS011;7865;50.918;4.510;2023-04-29T22:58:01;34.97;;;22.83;;
15526;SDS011;7865;50.918;4.510;2023-04-29T23:03:03;32.93;;;22.20;;
15526;SDS011;7865;50.918;4.510;2023-04-29T23:08:04;35.27;;;23.53;;
15526;SDS011;7865;50.918;4.510;2023-04-29T23:13:06;30.37;;;21.50;;
15526;SDS011;7865;50.918;4.510;2023-04-29T23:18:08;33.00;;;23.10;;
15526;SDS011;7865;50.918;4.510;2023-04-29T23:23:09;35.40;;;22.70;;
15526;SDS011;7865;50.918;4.510;2023-04-29T23:28:11;37.30;;;23.93;;
15526;SDS011;7865;50.918;4.510;2023-04-29T23:33:13;33.33;;;22.27;;
15526;SDS011;7865;50.918;4.510;2023-04-29T23:38:14;33.57;;;23.50;;
15526;SDS011;7865;50.918;4.510;2023-04-29T23:43:15;34.93;;;23.60;;
15526;SDS011;7865;50.918;4.510;2023-04-29T23:48:18;31.57;;;20.50;;
15526;SDS011;7865;50.918;4.510;2023-04-29T23:53:19;30.70;;;19.33;;
15526;SDS011;7865;50.918;4.510;2023-04-29T23:58:20;28.63;;;18.70;;
